createdAt,value
2019-02-19T00:01:43.423Z,98862.00
2019-02-19T00:04:10.603Z,98869.00
2019-02-19T00:06:37.721Z,98871.00
2019-02-19T00:09:05.962Z,98861.00
2019-02-19T00:11:33.106Z,98870.00
2019-02-19T00:14:00.262Z,98858.00
2019-02-19T00:16:27.423Z,98860.00
2019-02-19T00:18:54.502Z,98854.00
2019-02-19T00:21:21.823Z,98863.00
2019-02-19T00:23:49.023Z,98853.00
2019-02-19T00:26:17.582Z,98847.00
2019-02-19T00:28:44.702Z,98854.00
2019-02-19T00:31:11.804Z,98851.00
2019-02-19T00:33:38.972Z,98849.00
2019-02-19T00:36:07.102Z,98850.00
2019-02-19T00:38:34.222Z,98850.00
2019-02-19T00:41:01.342Z,98851.00
2019-02-19T00:43:30.282Z,98857.00
2019-02-19T00:45:57.382Z,98861.00
2019-02-19T00:48:24.482Z,98857.00
2019-02-19T00:50:51.603Z,98865.00
2019-02-19T00:53:18.762Z,98866.00
2019-02-19T00:55:45.982Z,98865.00
2019-02-19T00:58:13.144Z,98885.00
2019-02-19T01:00:40.306Z,98866.00
2019-02-19T01:03:07.466Z,98880.00
2019-02-19T01:05:34.642Z,98875.00
2019-02-19T01:08:01.782Z,98880.00
2019-02-19T01:10:28.962Z,98892.00
2019-02-19T01:12:56.043Z,98877.00
2019-02-19T01:15:25.410Z,98885.00
2019-02-19T01:17:52.267Z,98882.00
2019-02-19T01:20:19.423Z,98878.00
2019-02-19T01:22:46.582Z,98880.00
2019-02-19T01:25:13.662Z,98878.00
2019-02-19T01:27:40.803Z,98871.00
2019-02-19T01:30:09.842Z,98877.00
2019-02-19T01:32:36.923Z,98865.00
2019-02-19T01:35:05.645Z,98864.00
2019-02-19T01:37:32.905Z,98867.00
2019-02-19T01:40:00.043Z,98861.00
2019-02-19T01:42:27.163Z,98864.00
2019-02-19T01:44:54.302Z,98864.00
2019-02-19T01:47:21.423Z,98861.00
2019-02-19T01:49:48.583Z,98863.00
2019-02-19T01:52:15.683Z,98866.00
2019-02-19T01:54:42.882Z,98862.00
2019-02-19T01:57:10.009Z,98860.00
2019-02-19T01:59:37.143Z,98867.00
2019-02-19T02:02:04.203Z,98870.00
2019-02-19T02:04:31.345Z,98871.00
2019-02-19T02:06:58.482Z,98878.00
2019-02-19T02:09:25.602Z,98870.00
2019-02-19T02:11:52.762Z,98872.00
2019-02-19T02:14:19.923Z,98875.00
2019-02-19T02:16:47.064Z,98879.00
2019-02-19T02:19:14.167Z,98878.00
2019-02-19T02:21:41.322Z,98880.00
2019-02-19T02:24:08.445Z,98881.00
2019-02-19T02:26:35.604Z,98870.00
2019-02-19T02:29:22.403Z,98873.00
2019-02-19T02:31:49.562Z,98874.00
2019-02-19T02:34:16.645Z,98875.00
2019-02-19T02:36:43.710Z,98868.00
2019-02-19T02:39:10.863Z,98864.00
2019-02-19T02:41:38.023Z,98860.00
2019-02-19T02:44:05.145Z,98858.00
2019-02-19T02:46:32.283Z,98857.00
2019-02-19T02:48:59.383Z,98858.00
2019-02-19T02:51:26.547Z,98863.00
2019-02-19T02:53:53.643Z,98861.00
2019-02-19T02:56:20.723Z,98870.00
2019-02-19T02:58:47.884Z,98866.00
2019-02-19T03:01:14.965Z,98865.00
2019-02-19T03:03:42.082Z,98878.00
2019-02-19T03:06:22.984Z,98877.00
2019-02-19T03:08:50.080Z,98889.00
2019-02-19T03:11:17.190Z,98894.00
2019-02-19T03:14:04.064Z,98896.00
2019-02-19T03:16:31.184Z,98892.00
2019-02-19T03:18:58.342Z,98901.00
2019-02-19T03:21:25.462Z,98901.00
2019-02-19T03:23:52.805Z,98906.00
2019-02-19T03:26:19.903Z,98897.00
2019-02-19T03:28:47.003Z,98904.00
2019-02-19T03:31:14.092Z,98906.00
2019-02-19T03:33:41.244Z,98907.00
2019-02-19T03:36:08.332Z,98905.00
2019-02-19T03:38:35.582Z,98913.00
2019-02-19T03:41:02.783Z,98918.00
2019-02-19T03:43:30.215Z,98919.00
2019-02-19T03:45:57.302Z,98909.00
2019-02-19T03:48:24.422Z,98918.00
2019-02-19T03:50:51.543Z,98926.00
2019-02-19T03:53:18.645Z,98929.00
2019-02-19T03:55:46.063Z,98929.00
2019-02-19T03:58:13.388Z,98931.00
2019-02-19T04:00:40.522Z,98939.00
2019-02-19T04:03:07.625Z,98936.00
2019-02-19T04:05:35.045Z,98944.00
2019-02-19T04:08:02.122Z,98935.00
2019-02-19T04:10:29.265Z,98944.00
2019-02-19T04:12:56.405Z,98952.00
2019-02-19T04:15:23.781Z,98944.00
2019-02-19T04:17:50.982Z,98942.00
2019-02-19T04:20:18.103Z,98951.00
2019-02-19T04:22:45.206Z,98946.00
2019-02-19T04:25:12.343Z,98943.00
2019-02-19T04:27:39.502Z,98943.00
2019-02-19T04:30:08.284Z,98950.00
2019-02-19T04:32:35.381Z,98950.00
2019-02-19T04:35:04.142Z,98952.00
2019-02-19T04:37:31.286Z,98947.00
2019-02-19T04:39:58.404Z,98962.00
2019-02-19T04:42:25.522Z,98956.00
2019-02-19T04:44:52.702Z,98951.00
2019-02-19T04:47:19.848Z,98945.00
2019-02-19T04:49:46.982Z,98950.00
2019-02-19T04:52:14.142Z,98953.00
2019-02-19T04:54:41.263Z,98945.00
2019-02-19T04:57:08.445Z,98952.00
2019-02-19T04:59:35.538Z,98934.00
2019-02-19T05:02:02.663Z,98937.00
2019-02-19T05:04:29.783Z,98932.00
2019-02-19T05:06:57.065Z,98929.00
2019-02-19T05:09:24.223Z,98933.00
2019-02-19T05:11:51.344Z,98940.00
2019-02-19T05:14:18.424Z,98943.00
2019-02-19T05:16:45.522Z,98948.00
2019-02-19T05:19:12.686Z,98948.00
2019-02-19T05:21:39.864Z,98958.00
2019-02-19T05:24:06.924Z,98958.00
2019-02-19T05:26:33.962Z,98955.00
2019-02-19T05:29:01.145Z,98965.00
2019-02-19T05:31:28.253Z,98961.00
2019-02-19T05:33:55.339Z,98966.00
2019-02-19T05:36:22.468Z,98965.00
2019-02-19T05:38:49.644Z,98963.00
2019-02-19T05:41:16.722Z,98972.00
2019-02-19T05:43:43.903Z,98973.00
2019-02-19T05:46:11.044Z,98974.00
2019-02-19T05:48:38.200Z,98984.00
2019-02-19T05:51:05.368Z,98970.00
2019-02-19T05:53:32.483Z,98983.00
2019-02-19T05:55:59.704Z,98983.00
2019-02-19T05:58:26.844Z,98988.00
2019-02-19T06:00:53.963Z,98997.00
2019-02-19T06:03:21.164Z,98999.00
2019-02-19T06:05:48.224Z,98999.00
2019-02-19T06:08:15.383Z,98997.00
2019-02-19T06:10:44.238Z,98995.00
2019-02-19T06:13:12.022Z,98993.00
2019-02-19T06:15:39.161Z,98995.00
2019-02-19T06:18:06.264Z,98994.00
2019-02-19T06:20:33.367Z,98997.00
2019-02-19T06:23:00.783Z,99001.00
2019-02-19T06:25:27.871Z,98994.00
2019-02-19T06:27:57.148Z,99006.00
2019-02-19T06:30:24.225Z,99007.00
2019-02-19T06:32:51.424Z,99017.00
2019-02-19T06:35:18.504Z,99016.00
2019-02-19T06:37:45.603Z,99017.00
2019-02-19T06:40:27.944Z,99019.00
2019-02-19T06:42:55.063Z,99028.00
2019-02-19T06:45:22.283Z,99031.00
2019-02-19T06:47:49.426Z,99041.00
2019-02-19T06:50:16.543Z,99039.00
2019-02-19T06:52:43.662Z,99044.00
2019-02-19T06:55:10.803Z,99037.00
2019-02-19T06:57:37.903Z,99043.00
2019-02-19T07:00:12.043Z,99043.00
2019-02-19T07:02:49.924Z,99043.00
2019-02-19T07:05:18.844Z,99050.00
2019-02-19T07:07:45.963Z,99049.00
2019-02-19T07:10:13.103Z,99047.00
2019-02-19T07:12:40.162Z,99050.00
2019-02-19T07:15:08.542Z,99049.00
2019-02-19T07:17:35.603Z,99060.00
2019-02-19T07:20:06.262Z,99056.00
2019-02-19T07:22:33.422Z,99049.00
2019-02-19T07:25:00.543Z,99056.00
2019-02-19T07:27:27.803Z,99052.00
2019-02-19T07:29:54.965Z,99051.00
2019-02-19T07:32:22.043Z,99054.00
2019-02-19T07:34:49.223Z,99056.00
2019-02-19T07:37:16.323Z,99069.00
2019-02-19T07:39:43.463Z,99068.00
2019-02-19T07:42:10.582Z,99063.00
2019-02-19T07:44:37.683Z,99073.00
2019-02-19T07:47:04.862Z,99074.00
2019-02-19T07:49:32.003Z,99074.00
2019-02-19T07:51:59.183Z,99072.00
2019-02-19T07:54:26.302Z,99072.00
2019-02-19T07:56:53.445Z,99080.00
2019-02-19T07:59:20.623Z,99072.00
2019-02-19T08:01:47.946Z,99081.00
2019-02-19T08:04:15.011Z,99070.00
2019-02-19T08:06:42.203Z,99080.00
2019-02-19T08:09:10.745Z,99081.00
2019-02-19T08:11:37.848Z,99079.00
2019-02-19T08:14:04.925Z,99082.00
2019-02-19T08:16:32.043Z,99083.00
2019-02-19T08:18:59.162Z,99086.00
2019-02-19T08:21:26.325Z,99089.00
2019-02-19T08:24:13.166Z,99087.00
2019-02-19T08:26:40.363Z,99091.00
2019-02-19T08:29:13.909Z,99092.00
2019-02-19T08:31:36.484Z,99086.00
2019-02-19T08:34:03.584Z,99097.00
2019-02-19T08:36:30.804Z,99079.00
2019-02-19T08:38:57.883Z,99087.00
2019-02-19T08:41:25.065Z,99088.00
2019-02-19T08:43:52.444Z,99091.00
2019-02-19T08:46:19.644Z,99093.00
2019-02-19T08:48:46.705Z,99097.00
2019-02-19T08:51:13.883Z,99097.00
2019-02-19T08:53:41.023Z,99106.00
2019-02-19T08:56:08.235Z,99092.00
2019-02-19T08:58:35.403Z,99082.00
2019-02-19T09:01:02.515Z,99085.00
2019-02-19T09:03:29.683Z,99089.00
2019-02-19T09:05:56.770Z,99089.00
2019-02-19T09:08:23.945Z,99094.00
2019-02-19T09:10:51.024Z,99088.00
2019-02-19T09:13:18.084Z,99095.00
2019-02-19T09:15:45.189Z,99098.00
2019-02-19T09:18:12.243Z,99089.00
2019-02-19T09:20:39.342Z,99093.00
2019-02-19T09:23:06.422Z,99084.00
2019-02-19T09:25:33.523Z,99095.00
2019-02-19T09:28:00.603Z,99090.00
2019-02-19T09:30:27.742Z,99090.00
2019-02-19T09:32:54.843Z,99085.00
2019-02-19T09:35:21.997Z,99086.00
2019-02-19T09:37:49.361Z,99076.00
2019-02-19T09:40:16.523Z,99082.00
2019-02-19T09:42:43.684Z,99078.00
2019-02-19T09:45:10.922Z,99080.00
2019-02-19T09:47:38.073Z,99082.00
2019-02-19T09:50:11.243Z,99070.00
2019-02-19T09:52:38.344Z,99084.00
2019-02-19T09:55:25.183Z,99081.00
2019-02-19T09:57:52.303Z,99073.00
2019-02-19T10:00:19.465Z,99077.00
2019-02-19T10:02:46.628Z,99081.00
2019-02-19T10:05:13.756Z,99075.00
2019-02-19T10:07:40.863Z,99084.00
2019-02-19T10:10:15.216Z,99084.00
2019-02-19T10:12:42.322Z,99080.00
2019-02-19T10:15:12.727Z,99085.00
2019-02-19T10:17:39.861Z,99082.00
2019-02-19T10:20:09.703Z,99071.00
2019-02-19T10:22:36.763Z,99075.00
2019-02-19T10:25:09.123Z,99075.00
2019-02-19T10:27:36.263Z,99068.00
2019-02-19T10:30:14.463Z,99062.00
2019-02-19T10:32:41.526Z,99069.00
2019-02-19T10:35:10.803Z,99061.00
2019-02-19T10:37:37.923Z,99060.00
2019-02-19T10:40:17.983Z,99054.00
2019-02-19T10:42:45.124Z,99052.00
2019-02-19T10:45:18.766Z,99051.00
2019-02-19T10:47:45.883Z,99040.00
2019-02-19T10:50:12.975Z,99041.00
2019-02-19T10:52:40.182Z,99033.00
2019-02-19T10:55:09.442Z,99029.00
2019-02-19T10:57:36.528Z,99030.00
2019-02-19T11:00:10.765Z,99026.00
2019-02-19T11:02:37.923Z,99025.00
2019-02-19T11:05:08.421Z,99031.00
2019-02-19T11:07:35.524Z,99014.00
2019-02-19T11:10:06.643Z,99022.00
2019-02-19T11:12:33.803Z,99011.00
2019-02-19T11:15:00.925Z,99000.00
2019-02-19T11:17:28.103Z,99000.00
2019-02-19T11:19:55.203Z,99002.00
2019-02-19T11:22:22.381Z,98990.00
2019-02-19T11:24:49.502Z,98998.00
2019-02-19T11:27:16.918Z,98988.00
2019-02-19T11:29:44.023Z,98987.00
2019-02-19T11:32:11.203Z,98986.00
2019-02-19T11:34:38.642Z,98987.00
2019-02-19T11:37:05.842Z,98984.00
2019-02-19T11:39:33.005Z,98974.00
2019-02-19T11:42:00.185Z,98978.00
2019-02-19T11:44:27.251Z,98979.00
2019-02-19T11:46:54.542Z,98972.00
2019-02-19T11:49:21.703Z,98970.00
2019-02-19T11:51:48.803Z,98965.00
2019-02-19T11:54:15.923Z,98956.00
2019-02-19T11:56:43.003Z,98953.00
2019-02-19T11:59:10.290Z,98953.00
2019-02-19T12:01:37.445Z,98953.00
2019-02-19T12:04:04.583Z,98943.00
2019-02-19T12:06:31.682Z,98944.00
2019-02-19T12:08:58.803Z,98939.00
2019-02-19T12:11:25.862Z,98945.00
2019-02-19T12:13:53.001Z,98939.00
2019-02-19T12:16:20.103Z,98942.00
2019-02-19T12:18:47.223Z,98931.00
2019-02-19T12:21:14.407Z,98922.00
2019-02-19T12:23:41.603Z,98926.00
2019-02-19T12:26:08.829Z,98924.00
2019-02-19T12:28:36.002Z,98918.00
2019-02-19T12:31:03.122Z,98921.00
2019-02-19T12:33:30.502Z,98913.00
2019-02-19T12:35:57.605Z,98912.00
2019-02-19T12:38:24.723Z,98910.00
2019-02-19T12:40:51.863Z,98907.00
2019-02-19T12:43:18.983Z,98911.00
2019-02-19T12:45:46.022Z,98904.00
2019-02-19T12:48:13.123Z,98898.00
2019-02-19T12:50:40.223Z,98891.00
2019-02-19T12:53:07.283Z,98890.00
2019-02-19T12:55:34.383Z,98891.00
2019-02-19T12:58:01.507Z,98890.00
2019-02-19T13:00:28.565Z,98894.00
2019-02-19T13:02:55.703Z,98888.00
2019-02-19T13:05:22.965Z,98883.00
2019-02-19T13:07:50.062Z,98890.00
2019-02-19T13:10:17.543Z,98883.00
2019-02-19T13:12:44.603Z,98887.00
2019-02-19T13:15:18.563Z,98882.00
2019-02-19T13:17:45.763Z,98877.00
2019-02-19T13:20:14.041Z,98879.00
2019-02-19T13:22:41.185Z,98885.00
2019-02-19T13:25:10.687Z,98884.00
2019-02-19T13:27:38.103Z,98884.00
2019-02-19T13:30:15.571Z,98881.00
2019-02-19T13:32:42.682Z,98877.00
2019-02-19T13:35:12.285Z,98878.00
2019-02-19T13:37:39.422Z,98870.00
2019-02-19T13:40:10.343Z,98877.00
2019-02-19T13:42:37.483Z,98870.00
2019-02-19T13:45:08.843Z,98866.00
2019-02-19T13:47:35.983Z,98872.00
2019-02-19T13:50:07.484Z,98870.00
2019-02-19T13:52:36.442Z,98868.00
2019-02-19T13:55:05.482Z,98865.00
2019-02-19T13:57:32.602Z,98874.00
2019-02-19T13:59:59.723Z,98866.00
2019-02-19T14:02:26.820Z,98870.00
2019-02-19T14:04:53.944Z,98862.00
2019-02-19T14:07:21.264Z,98871.00
2019-02-19T14:09:48.363Z,98869.00
2019-02-19T14:12:15.463Z,98865.00
2019-02-19T14:14:44.383Z,98861.00
2019-02-19T14:17:11.542Z,98873.00
2019-02-19T14:19:43.545Z,98875.00
2019-02-19T14:22:29.124Z,98879.00
2019-02-19T14:25:03.784Z,98874.00
2019-02-19T14:27:32.765Z,98867.00
2019-02-19T14:30:18.565Z,98866.00
2019-02-19T14:33:02.874Z,98875.00
2019-02-19T14:35:31.786Z,98868.00
2019-02-19T14:38:17.583Z,98871.00
2019-02-19T14:41:01.383Z,98865.00
2019-02-19T14:43:48.261Z,98870.00
2019-02-19T14:46:20.044Z,98862.00
2019-02-19T14:48:55.043Z,98869.00
2019-02-19T14:51:42.448Z,98852.00
2019-02-19T14:54:11.406Z,98849.00
2019-02-19T14:56:55.462Z,98852.00
2019-02-19T14:59:27.223Z,98844.00
2019-02-19T15:01:56.063Z,98847.00
2019-02-19T15:04:41.845Z,98836.00
2019-02-19T15:07:16.723Z,98836.00
2019-02-19T15:09:45.683Z,98841.00
2019-02-19T15:12:20.709Z,98837.00
2019-02-19T15:14:52.483Z,98836.00
2019-02-19T15:17:27.503Z,98832.00
2019-02-19T15:20:05.385Z,98830.00
2019-02-19T15:22:51.043Z,98835.00
2019-02-19T15:25:36.583Z,98828.00
2019-02-19T15:28:05.523Z,98833.00
2019-02-19T15:30:43.582Z,98840.00
2019-02-19T15:33:18.544Z,98837.00
2019-02-19T15:35:47.622Z,98837.00
2019-02-19T15:38:28.883Z,98842.00
2019-02-19T15:41:06.684Z,98848.00
2019-02-19T15:43:35.648Z,98840.00
2019-02-19T15:46:04.626Z,98838.00
2019-02-19T15:48:42.524Z,98836.00
2019-02-19T15:51:13.942Z,98829.00
2019-02-19T15:53:59.882Z,98831.00
2019-02-19T15:56:44.046Z,98838.00
2019-02-19T15:59:25.027Z,98841.00
2019-02-19T16:01:59.922Z,98845.00
2019-02-19T16:04:45.352Z,98838.00
2019-02-19T16:07:14.720Z,98845.00
2019-02-19T16:09:46.374Z,98842.00
2019-02-19T16:12:24.405Z,98836.00
2019-02-19T16:14:56.103Z,98836.00
2019-02-19T16:23:12.868Z,98848.00
2019-02-19T16:25:41.787Z,98839.00
2019-02-19T16:28:13.672Z,98840.00
2019-02-19T16:30:43.359Z,98829.00
2019-02-19T16:33:15.386Z,98831.00
2019-02-19T16:35:59.549Z,98827.00
2019-02-19T16:38:44.949Z,98828.00
2019-02-19T16:41:14.258Z,98827.00
2019-02-19T16:44:01.194Z,98821.00
2019-02-19T16:46:39.352Z,98829.00
2019-02-19T16:49:24.899Z,98836.00
2019-02-19T16:51:54.070Z,98831.00
2019-02-19T16:54:25.620Z,98835.00
2019-02-19T16:56:54.471Z,98838.00
2019-02-19T16:59:27.021Z,98829.00
2019-02-19T17:01:58.853Z,98846.00
2019-02-19T17:04:27.800Z,98843.00
2019-02-19T17:06:59.194Z,98848.00
2019-02-19T17:09:28.092Z,98854.00
2019-02-19T17:12:12.118Z,98848.00
2019-02-19T17:14:40.996Z,98847.00
2019-02-19T17:17:25.037Z,98854.00
2019-02-19T17:20:05.590Z,98855.00
2019-02-19T17:22:40.537Z,98854.00
2019-02-19T17:25:15.444Z,98860.00
2019-02-19T17:28:01.036Z,98852.00
2019-02-19T17:30:38.841Z,98857.00
2019-02-19T17:33:07.777Z,98861.00
2019-02-19T17:35:36.647Z,98862.00
2019-02-19T17:38:17.716Z,98851.00
2019-02-19T17:41:02.958Z,98852.00
2019-02-19T17:43:40.757Z,98858.00
2019-02-19T17:46:09.637Z,98851.00
2019-02-19T17:48:41.537Z,98851.00
2019-02-19T17:51:22.477Z,98843.00
2019-02-19T17:53:51.357Z,98844.00
2019-02-19T17:56:29.179Z,98849.00
2019-02-19T17:59:01.117Z,98858.00
2019-02-19T18:01:30.059Z,98864.00
2019-02-19T18:04:01.776Z,98853.00
2019-02-19T18:06:47.369Z,98863.00
2019-02-19T18:09:22.249Z,98853.00
2019-02-19T18:12:00.389Z,98860.00
2019-02-19T18:14:45.710Z,98857.00
2019-02-19T18:17:23.771Z,98867.00
2019-02-19T18:19:50.929Z,98862.00
2019-02-19T18:22:18.189Z,98851.00
2019-02-19T18:24:45.410Z,98856.00
2019-02-19T18:27:12.529Z,98855.00
2019-02-19T18:29:39.729Z,98852.00
2019-02-19T18:32:06.850Z,98848.00
2019-02-19T18:34:33.910Z,98861.00
2019-02-19T18:37:20.790Z,98861.00
2019-02-19T18:39:48.089Z,98859.00
2019-02-19T18:42:15.173Z,98854.00
2019-02-19T18:44:42.270Z,98856.00
2019-02-19T18:47:09.371Z,98861.00
2019-02-19T18:49:36.506Z,98853.00
2019-02-19T18:52:03.614Z,98861.00
2019-02-19T18:54:30.711Z,98854.00
2019-02-19T18:56:57.803Z,98854.00
2019-02-19T18:59:24.963Z,98856.00
2019-02-19T19:01:52.057Z,98854.00
2019-02-19T19:04:19.165Z,98863.00
2019-02-19T19:06:46.281Z,98864.00
2019-02-19T19:09:13.417Z,98871.00
2019-02-19T19:11:42.021Z,98868.00
2019-02-19T19:14:09.416Z,98865.00
2019-02-19T19:16:36.537Z,98867.00
2019-02-19T19:19:03.677Z,98863.00
2019-02-19T19:21:30.857Z,98866.00
2019-02-19T19:23:57.998Z,98870.00
2019-02-19T19:26:25.141Z,98869.00
2019-02-19T19:28:52.220Z,98877.00
2019-02-19T19:31:19.460Z,98880.00
2019-02-19T19:33:46.541Z,98878.00
2019-02-19T19:36:13.701Z,98882.00
2019-02-19T19:38:40.821Z,98872.00
2019-02-19T19:41:07.974Z,98885.00
2019-02-19T19:43:37.179Z,98880.00
2019-02-19T19:46:04.100Z,98877.00
2019-02-19T19:48:31.663Z,98884.00
2019-02-19T19:50:58.785Z,98888.00
2019-02-19T19:53:25.861Z,98878.00
2019-02-19T19:55:53.082Z,98893.00
2019-02-19T19:58:20.154Z,98887.00
2019-02-19T20:00:47.261Z,98894.00
2019-02-19T20:03:14.401Z,98902.00
2019-02-19T20:05:41.580Z,98897.00
2019-02-19T20:08:08.686Z,98902.00
2019-02-19T20:10:35.843Z,98904.00
2019-02-19T20:13:03.081Z,98908.00
2019-02-19T20:15:30.220Z,98909.00
2019-02-19T20:17:57.323Z,98917.00
2019-02-19T20:20:24.481Z,98905.00
2019-02-19T20:22:51.621Z,98913.00
2019-02-19T20:25:18.764Z,98920.00
2019-02-19T20:27:45.921Z,98919.00
2019-02-19T20:30:15.100Z,98927.00
2019-02-19T20:32:42.241Z,98922.00
2019-02-19T20:35:10.163Z,98924.00
2019-02-19T20:37:37.724Z,98919.00
2019-02-19T20:40:07.846Z,98923.00
2019-02-19T20:42:35.061Z,98919.00
2019-02-19T20:45:02.541Z,98923.00
2019-02-19T20:47:29.640Z,98918.00
2019-02-19T20:49:56.721Z,98925.00
2019-02-19T20:52:23.864Z,98925.00
2019-02-19T20:54:51.002Z,98930.00
2019-02-19T20:57:18.121Z,98928.00
2019-02-19T20:59:45.242Z,98935.00
2019-02-19T21:02:12.441Z,98941.00
2019-02-19T21:04:39.561Z,98946.00
2019-02-19T21:07:06.634Z,98948.00
2019-02-19T21:09:43.202Z,98948.00
2019-02-19T21:12:02.761Z,98952.00
2019-02-19T21:14:29.880Z,98953.00
2019-02-19T21:16:57.041Z,98953.00
2019-02-19T21:19:24.220Z,98952.00
2019-02-19T21:21:51.347Z,98951.00
2019-02-19T21:24:18.461Z,98960.00
2019-02-19T21:26:45.630Z,98957.00
2019-02-19T21:29:12.740Z,98959.00
2019-02-19T21:31:40.415Z,98958.00
2019-02-19T21:34:07.580Z,98958.00
2019-02-19T21:36:34.742Z,98957.00
2019-02-19T21:39:01.901Z,98961.00
2019-02-19T21:41:29.061Z,98969.00
2019-02-19T21:43:56.181Z,98964.00
2019-02-19T21:46:23.380Z,98968.00
2019-02-19T21:48:50.520Z,98961.00
2019-02-19T21:51:17.700Z,98962.00
2019-02-19T21:53:44.840Z,98969.00
2019-02-19T21:56:13.701Z,98962.00
2019-02-19T21:58:40.901Z,98968.00
2019-02-19T22:01:08.283Z,98962.00
2019-02-19T22:03:35.432Z,98971.00
2019-02-19T22:06:02.620Z,98969.00
2019-02-19T22:08:29.720Z,98976.00
2019-02-19T22:10:56.880Z,98976.00
2019-02-19T22:13:24.026Z,98976.00
2019-02-19T22:15:51.200Z,98977.00
2019-02-19T22:18:18.347Z,98979.00
2019-02-19T22:20:49.781Z,98983.00
2019-02-19T22:23:16.904Z,98986.00
2019-02-19T22:25:44.080Z,98982.00
2019-02-19T22:28:11.240Z,98980.00
2019-02-19T22:30:38.300Z,98976.00
2019-02-19T22:33:05.400Z,98980.00
2019-02-19T22:35:32.480Z,98989.00
2019-02-19T22:37:59.563Z,98986.00
2019-02-19T22:40:26.690Z,98979.00
2019-02-19T22:42:53.954Z,98990.00
2019-02-19T22:45:21.134Z,98994.00
2019-02-19T22:47:53.417Z,98988.00
2019-02-19T22:50:17.354Z,98994.00
2019-02-19T22:52:44.574Z,98998.00
2019-02-19T22:55:16.208Z,99006.00
2019-02-19T22:57:43.394Z,99010.00
2019-02-19T23:00:26.374Z,99013.00
2019-02-19T23:02:53.634Z,99023.00
2019-02-19T23:05:20.813Z,99020.00
2019-02-19T23:07:47.993Z,99016.00
2019-02-19T23:10:15.174Z,99023.00
2019-02-19T23:12:42.494Z,99026.00
2019-02-19T23:15:09.733Z,99035.00
2019-02-19T23:17:36.853Z,99035.00
2019-02-19T23:20:05.514Z,99032.00
2019-02-19T23:22:32.645Z,99041.00
2019-02-19T23:24:59.853Z,99032.00
2019-02-19T23:27:27.009Z,99033.00
2019-02-19T23:29:54.063Z,99040.00
2019-02-19T23:32:21.242Z,99035.00
2019-02-19T23:34:50.651Z,99036.00
2019-02-19T23:37:17.866Z,99041.00
2019-02-19T23:39:44.963Z,99041.00
2019-02-19T23:42:12.103Z,99047.00
2019-02-19T23:44:39.202Z,99040.00
2019-02-19T23:47:06.325Z,99050.00
2019-02-19T23:49:33.403Z,99039.00
2019-02-19T23:52:00.763Z,99040.00
2019-02-19T23:54:27.862Z,99035.00
2019-02-19T23:56:54.942Z,99047.00
2019-02-19T23:59:22.043Z,99053.00
